createdAt,value
2023-02-18T00:01:09.903Z,11.40
2023-02-18T00:03:38.392Z,11.40
2023-02-18T00:06:39.417Z,11.40
2023-02-18T00:09:09.963Z,11.40
2023-02-18T00:11:39.760Z,11.40
2023-02-18T00:14:10.043Z,11.40
2023-02-18T00:16:38.806Z,11.40
2023-02-18T00:19:09.433Z,11.40
2023-02-18T00:21:38.513Z,11.40
2023-02-18T00:24:08.289Z,11.40
2023-02-18T00:26:38.415Z,11.40
2023-02-18T00:29:07.014Z,11.40
2023-02-18T00:31:37.475Z,11.40
2023-02-18T00:34:07.057Z,11.40
2023-02-18T00:36:37.313Z,11.30
2023-02-18T00:39:08.053Z,11.30
2023-02-18T00:41:38.588Z,11.30
2023-02-18T00:44:08.058Z,11.40
2023-02-18T00:46:37.408Z,11.40
2023-02-18T00:49:07.388Z,11.40
2023-02-18T00:51:37.564Z,11.30
2023-02-18T00:54:06.048Z,11.30
2023-02-18T00:56:34.751Z,11.30
2023-02-18T00:59:05.170Z,11.30
2023-02-18T01:01:34.920Z,11.40
2023-02-18T01:04:03.523Z,11.40
2023-02-18T01:06:33.407Z,11.40
2023-02-18T01:09:02.013Z,11.40
2023-02-18T01:11:31.598Z,11.40
2023-02-18T01:14:00.380Z,11.30
2023-02-18T01:16:32.715Z,11.30
2023-02-18T01:19:01.349Z,11.30
2023-02-18T01:21:30.033Z,11.30
2023-02-18T01:23:59.591Z,11.30
2023-02-18T01:26:28.302Z,11.30
2023-02-18T01:28:57.003Z,11.40
2023-02-18T01:31:25.652Z,11.40
2023-02-18T01:33:55.809Z,11.40
2023-02-18T01:36:24.473Z,11.30
2023-02-18T01:38:58.025Z,11.40
2023-02-18T01:41:26.700Z,11.40
2023-02-18T01:44:14.265Z,11.30
2023-02-18T01:46:42.966Z,11.30
2023-02-18T01:49:17.170Z,11.30
2023-02-18T01:51:50.392Z,11.40
2023-02-18T01:54:23.984Z,11.30
2023-02-18T01:56:58.874Z,11.30
2023-02-18T01:59:31.928Z,11.30
2023-02-18T02:02:00.942Z,11.20
2023-02-18T02:04:33.096Z,11.20
2023-02-18T02:07:01.916Z,11.20
2023-02-18T02:09:32.465Z,11.20
2023-02-18T02:12:26.661Z,11.10
2023-02-18T02:15:16.008Z,11.10
2023-02-18T02:17:55.421Z,11.00
2023-02-18T02:21:17.269Z,11.00
2023-02-18T02:24:20.480Z,11.00
2023-02-18T02:27:15.803Z,10.90
2023-02-18T02:30:06.386Z,10.80
2023-02-18T02:33:11.889Z,10.70
2023-02-18T02:35:47.221Z,10.70
2023-02-18T02:38:20.386Z,10.60
2023-02-18T02:40:56.250Z,10.50
2023-02-18T02:43:34.756Z,10.50
2023-02-18T02:46:10.768Z,10.50
2023-02-18T02:48:50.066Z,10.40
2023-02-18T02:51:27.135Z,10.40
2023-02-18T02:54:12.738Z,10.40
2023-02-18T02:56:41.564Z,10.30
2023-02-18T02:59:15.086Z,10.30
2023-02-18T03:02:03.325Z,10.30
2023-02-18T03:04:56.217Z,10.30
2023-02-18T03:07:57.695Z,10.30
2023-02-18T03:10:41.325Z,10.30
2023-02-18T03:13:18.346Z,10.30
2023-02-18T03:15:54.927Z,10.30
2023-02-18T03:18:28.994Z,10.30
2023-02-18T03:21:02.394Z,10.30
2023-02-18T03:23:39.140Z,10.30
2023-02-18T03:26:10.816Z,10.30
2023-02-18T03:28:40.726Z,10.40
2023-02-18T03:31:13.481Z,10.40
2023-02-18T03:33:47.015Z,10.40
2023-02-18T03:36:15.722Z,10.40
2023-02-18T03:38:55.950Z,10.40
2023-02-18T03:41:24.651Z,10.50
2023-02-18T03:43:55.399Z,10.50
2023-02-18T03:46:24.248Z,10.40
2023-02-18T03:48:53.550Z,10.50
2023-02-18T03:51:24.329Z,10.50
2023-02-18T03:53:55.430Z,10.50
2023-02-18T03:56:24.656Z,10.60
2023-02-18T03:58:58.421Z,10.60
2023-02-18T04:01:27.569Z,10.60
2023-02-18T04:03:57.165Z,10.70
2023-02-18T04:06:28.759Z,10.70
2023-02-18T04:08:58.997Z,10.60
2023-02-18T04:11:27.964Z,10.60
2023-02-18T04:13:56.684Z,10.50
2023-02-18T04:16:25.340Z,10.50
2023-02-18T04:18:54.005Z,10.40
2023-02-18T04:21:22.658Z,10.50
2023-02-18T04:23:51.421Z,10.50
2023-02-18T04:26:21.519Z,10.50
2023-02-18T04:28:50.250Z,10.40
2023-02-18T04:31:18.996Z,10.40
2023-02-18T04:33:48.723Z,10.40
2023-02-18T04:36:17.309Z,10.40
2023-02-18T04:38:45.874Z,10.40
2023-02-18T04:41:14.393Z,10.30
2023-02-18T04:43:44.559Z,10.30
2023-02-18T04:46:13.323Z,10.30
2023-02-18T04:48:45.704Z,10.30
2023-02-18T04:51:14.581Z,10.20
2023-02-18T04:53:43.822Z,10.30
2023-02-18T04:56:12.657Z,10.30
2023-02-18T04:58:41.652Z,10.30
2023-02-18T05:01:12.628Z,10.30
2023-02-18T05:03:50.667Z,10.30
2023-02-18T05:06:23.440Z,10.30
2023-02-18T05:08:52.515Z,10.30
2023-02-18T05:11:21.683Z,10.30
2023-02-18T05:13:50.628Z,10.30
2023-02-18T05:16:20.949Z,10.30
2023-02-18T05:18:50.044Z,10.40
2023-02-18T05:21:22.638Z,10.40
2023-02-18T05:23:51.301Z,10.30
2023-02-18T05:26:20.624Z,10.30
2023-02-18T05:28:49.346Z,10.30
2023-02-18T05:31:18.453Z,10.30
2023-02-18T05:33:48.753Z,10.20
2023-02-18T05:36:17.435Z,10.20
2023-02-18T05:38:46.067Z,10.20
2023-02-18T05:41:14.875Z,10.20
2023-02-18T05:44:00.949Z,10.10
2023-02-18T05:46:29.638Z,10.10
2023-02-18T05:48:59.820Z,10.10
2023-02-18T05:51:28.793Z,10.10
2023-02-18T05:54:01.112Z,10.10
2023-02-18T05:56:31.213Z,10.10
2023-02-18T05:59:00.447Z,10.10
2023-02-18T06:01:29.486Z,10.10
2023-02-18T06:04:04.110Z,10.10
2023-02-18T06:06:38.147Z,10.10
2023-02-18T06:09:08.112Z,10.00
2023-02-18T06:11:37.601Z,10.00
2023-02-18T06:14:09.985Z,10.00
2023-02-18T06:16:38.725Z,10.00
2023-02-18T06:19:37.634Z,10.00
2023-02-18T06:22:06.208Z,10.00
2023-02-18T06:24:34.806Z,9.90
2023-02-18T06:27:03.645Z,9.90
2023-02-18T06:29:32.736Z,10.00
2023-02-18T06:32:01.667Z,10.00
2023-02-18T06:34:31.609Z,9.90
2023-02-18T06:37:01.763Z,10.00
2023-02-18T06:39:30.860Z,9.90
2023-02-18T06:42:00.496Z,10.00
2023-02-18T06:44:29.108Z,10.00
2023-02-18T06:46:57.700Z,10.00
2023-02-18T06:49:26.369Z,10.00
2023-02-18T06:51:55.895Z,10.00
2023-02-18T06:54:26.507Z,10.00
2023-02-18T06:56:55.060Z,10.10
2023-02-18T06:59:23.648Z,10.10
2023-02-18T07:01:52.222Z,10.10
2023-02-18T07:04:20.817Z,10.10
2023-02-18T07:06:49.429Z,10.20
2023-02-18T07:09:18.074Z,10.20
2023-02-18T07:11:50.245Z,10.20
2023-02-18T07:14:18.905Z,10.20
2023-02-18T07:16:47.712Z,10.30
2023-02-18T07:19:16.281Z,10.30
2023-02-18T07:21:44.998Z,10.30
2023-02-18T07:24:13.760Z,10.40
2023-02-18T07:26:42.562Z,10.40
2023-02-18T07:29:12.638Z,10.40
2023-02-18T07:31:41.744Z,10.50
2023-02-18T07:34:10.811Z,10.50
2023-02-18T07:36:39.737Z,10.50
2023-02-18T07:39:08.502Z,10.50
2023-02-18T07:41:37.189Z,10.50
2023-02-18T07:44:09.460Z,10.60
2023-02-18T07:46:42.938Z,10.50
2023-02-18T07:49:11.775Z,10.50
2023-02-18T07:51:40.613Z,10.50
2023-02-18T07:54:15.521Z,10.60
2023-02-18T07:56:47.329Z,10.70
2023-02-18T07:59:17.635Z,10.80
2023-02-18T08:01:49.722Z,10.90
2023-02-18T08:04:19.095Z,10.90
2023-02-18T08:06:51.863Z,11.10
2023-02-18T08:09:23.440Z,11.10
2023-02-18T08:11:59.372Z,11.20
2023-02-18T08:14:28.829Z,11.40
2023-02-18T08:17:00.015Z,11.40
2023-02-18T08:19:32.679Z,11.60
2023-02-18T08:22:05.972Z,11.60
2023-02-18T08:24:35.511Z,11.70
2023-02-18T08:27:11.479Z,11.80
2023-02-18T08:29:45.529Z,11.90
2023-02-18T08:32:17.089Z,12.00
2023-02-18T08:34:50.391Z,12.00
2023-02-18T08:37:24.718Z,12.10
2023-02-18T08:39:57.752Z,12.20
2023-02-18T08:42:30.705Z,12.30
2023-02-18T08:45:04.818Z,12.40
2023-02-18T08:48:17.564Z,12.50
2023-02-18T08:50:30.744Z,12.50
2023-02-18T08:53:36.034Z,12.60
2023-02-18T08:56:17.269Z,12.60
2023-02-18T08:58:51.391Z,12.70
2023-02-18T09:01:21.211Z,12.90
2023-02-18T09:03:54.955Z,13.00
2023-02-18T09:06:24.886Z,13.10
2023-02-18T09:08:59.402Z,13.30
2023-02-18T09:11:30.998Z,13.40
2023-02-18T09:14:03.562Z,13.50
2023-02-18T09:16:37.465Z,13.50
2023-02-18T09:19:11.187Z,13.50
2023-02-18T09:21:42.166Z,13.50
2023-02-18T09:24:14.604Z,13.40
2023-02-18T09:26:47.061Z,13.40
2023-02-18T09:29:21.861Z,13.40
2023-02-18T09:31:52.816Z,13.30
2023-02-18T09:34:25.011Z,13.20
2023-02-18T09:36:57.580Z,13.10
2023-02-18T09:39:28.799Z,13.20
2023-02-18T09:42:04.411Z,13.10
2023-02-18T09:44:36.858Z,13.10
2023-02-18T09:47:14.534Z,13.10
2023-02-18T09:49:51.193Z,13.10
2023-02-18T09:52:30.026Z,13.00
2023-02-18T09:55:22.683Z,13.00
2023-02-18T09:57:57.878Z,13.10
2023-02-18T10:00:33.724Z,13.10
2023-02-18T10:03:13.794Z,13.00
2023-02-18T10:05:55.563Z,13.00
2023-02-18T10:08:30.471Z,13.10
2023-02-18T10:11:00.399Z,13.10
2023-02-18T10:13:34.902Z,13.30
2023-02-18T10:16:07.288Z,13.50
2023-02-18T10:18:42.785Z,13.70
2023-02-18T10:21:19.742Z,13.80
2023-02-18T10:23:56.730Z,13.80
2023-02-18T10:26:31.678Z,13.90
2023-02-18T10:29:02.097Z,14.00
2023-02-18T10:31:35.887Z,14.20
2023-02-18T10:34:13.872Z,14.30
2023-02-18T10:36:47.470Z,14.30
2023-02-18T10:39:36.943Z,14.40
2023-02-18T10:42:25.160Z,14.40
2023-02-18T10:45:02.828Z,14.30
2023-02-18T10:47:40.846Z,14.40
2023-02-18T10:50:13.308Z,14.40
2023-02-18T10:52:47.078Z,14.40
2023-02-18T10:55:18.951Z,14.50
2023-02-18T10:57:50.456Z,14.60
2023-02-18T11:00:24.062Z,14.60
2023-02-18T11:03:18.083Z,14.70
2023-02-18T11:05:47.837Z,14.80
2023-02-18T11:08:21.481Z,14.70
2023-02-18T11:10:50.882Z,14.70
2023-02-18T11:13:27.726Z,14.60
2023-02-18T11:16:01.957Z,14.50
2023-02-18T11:18:38.768Z,14.50
2023-02-18T11:21:21.688Z,14.50
2023-02-18T11:23:53.924Z,14.50
2023-02-18T11:26:29.735Z,14.30
2023-02-18T11:29:04.071Z,14.30
2023-02-18T11:31:43.325Z,14.30
2023-02-18T11:34:18.482Z,14.40
2023-02-18T11:36:47.747Z,14.40
2023-02-18T11:39:23.173Z,14.50
2023-02-18T11:41:58.032Z,14.50
2023-02-18T11:44:31.665Z,14.50
2023-02-18T11:47:03.092Z,14.50
2023-02-18T11:49:34.160Z,14.50
2023-02-18T11:52:15.730Z,14.40
2023-02-18T11:55:02.322Z,14.20
2023-02-18T11:57:31.906Z,14.10
2023-02-18T12:00:02.460Z,14.00
2023-02-18T12:02:40.112Z,13.90
2023-02-18T12:05:15.936Z,13.80
2023-02-18T12:07:49.014Z,13.70
2023-02-18T12:10:26.941Z,13.60
2023-02-18T12:13:02.772Z,13.60
2023-02-18T12:15:40.655Z,13.50
2023-02-18T12:18:32.050Z,13.50
2023-02-18T12:21:17.081Z,13.50
2023-02-18T12:23:57.875Z,13.60
2023-02-18T12:26:31.312Z,13.60
2023-02-18T12:29:29.073Z,13.70
2023-02-18T12:32:11.563Z,13.80
2023-02-18T12:34:59.382Z,13.80
2023-02-18T12:37:51.112Z,13.70
2023-02-18T12:40:45.965Z,13.60
2023-02-18T12:43:27.764Z,13.50
2023-02-18T12:46:22.296Z,13.50
2023-02-18T12:49:08.487Z,13.50
2023-02-18T12:51:48.102Z,13.50
2023-02-18T12:54:36.082Z,13.50
2023-02-18T12:57:36.974Z,13.50
2023-02-18T13:00:39.903Z,13.50
2023-02-18T13:03:37.042Z,13.40
2023-02-18T13:06:20.078Z,13.40
2023-02-18T13:08:58.939Z,13.40
2023-02-18T13:11:38.004Z,13.40
2023-02-18T13:14:13.516Z,13.40
2023-02-18T13:16:47.824Z,13.30
2023-02-18T13:19:22.528Z,13.30
2023-02-18T13:21:53.136Z,13.20
2023-02-18T13:24:29.443Z,13.30
2023-02-18T13:27:04.729Z,13.40
2023-02-18T13:29:42.119Z,13.40
2023-02-18T13:32:23.749Z,13.50
2023-02-18T13:34:59.128Z,13.50
2023-02-18T13:37:34.393Z,13.60
2023-02-18T13:40:03.986Z,13.90
2023-02-18T13:42:38.626Z,14.10
2023-02-18T13:45:29.163Z,14.20
2023-02-18T13:48:00.151Z,14.10
2023-02-18T13:50:32.702Z,13.90
2023-02-18T13:53:16.444Z,13.80
2023-02-18T13:55:55.069Z,13.60
2023-02-18T13:58:26.998Z,13.50
2023-02-18T14:01:00.332Z,13.50
2023-02-18T14:04:02.165Z,13.40
2023-02-18T14:06:34.203Z,13.40
2023-02-18T14:09:37.404Z,13.40
2023-02-18T14:12:36.994Z,13.40
2023-02-18T14:15:48.036Z,13.40
2023-02-18T14:18:58.354Z,13.30
2023-02-18T14:21:43.202Z,13.40
2023-02-18T14:24:13.459Z,13.30
2023-02-18T14:26:46.996Z,13.30
2023-02-18T14:29:31.414Z,13.20
2023-02-18T14:32:05.149Z,13.20
2023-02-18T14:35:04.559Z,13.10
2023-02-18T14:37:55.302Z,13.10
2023-02-18T14:40:48.835Z,13.20
2023-02-18T14:43:32.156Z,13.10
2023-02-18T14:46:10.769Z,13.10
2023-02-18T14:49:19.773Z,13.10
2023-02-18T14:51:51.442Z,12.90
2023-02-18T14:54:24.090Z,12.80
2023-02-18T14:56:57.498Z,12.80
2023-02-18T14:59:29.781Z,12.80
2023-02-18T15:01:58.936Z,12.70
2023-02-18T15:04:28.143Z,12.70
2023-02-18T15:07:02.870Z,12.60
2023-02-18T15:09:31.785Z,12.60
2023-02-18T15:12:04.684Z,12.60
2023-02-18T15:14:37.382Z,12.60
2023-02-18T15:17:07.684Z,12.50
2023-02-18T15:19:41.416Z,12.50
2023-02-18T15:22:18.648Z,12.50
2023-02-18T15:24:48.230Z,12.40
2023-02-18T15:27:19.424Z,12.40
2023-02-18T15:29:52.453Z,12.40
2023-02-18T15:32:24.053Z,12.30
2023-02-18T15:34:53.995Z,12.30
2023-02-18T15:37:24.268Z,12.30
2023-02-18T15:39:53.036Z,12.30
2023-02-18T15:42:28.527Z,12.30
2023-02-18T15:44:59.768Z,12.20
2023-02-18T15:47:28.507Z,12.20
2023-02-18T15:50:00.881Z,12.20
2023-02-18T15:52:33.887Z,12.20
2023-02-18T15:55:05.853Z,12.10
2023-02-18T15:57:37.056Z,12.10
2023-02-18T16:00:14.492Z,12.10
2023-02-18T16:02:54.325Z,12.10
2023-02-18T16:05:27.935Z,12.00
2023-02-18T16:08:02.431Z,12.00
2023-02-18T16:10:48.990Z,12.00
2023-02-18T16:13:19.652Z,12.00
2023-02-18T16:15:50.390Z,12.00
2023-02-18T16:18:26.299Z,12.00
2023-02-18T16:20:56.790Z,12.00
2023-02-18T16:23:42.549Z,12.00
2023-02-18T16:26:23.250Z,11.90
2023-02-18T16:28:54.174Z,11.90
2023-02-18T16:31:23.628Z,11.90
2023-02-18T16:33:52.193Z,11.80
2023-02-18T16:36:22.758Z,11.80
2023-02-18T16:38:52.764Z,11.80
2023-02-18T16:41:21.372Z,11.80
2023-02-18T16:43:50.596Z,11.80
2023-02-18T16:46:22.707Z,11.80
2023-02-18T16:48:55.039Z,11.80
2023-02-18T16:51:27.786Z,11.70
2023-02-18T16:53:58.542Z,11.60
2023-02-18T16:56:31.002Z,11.60
2023-02-18T16:58:59.732Z,11.50
2023-02-18T17:01:32.024Z,11.50
2023-02-18T17:04:02.097Z,11.50
2023-02-18T17:06:31.720Z,11.50
2023-02-18T17:09:02.229Z,11.40
2023-02-18T17:11:32.713Z,11.40
2023-02-18T17:14:05.131Z,11.40
2023-02-18T17:16:33.993Z,11.30
2023-02-18T17:19:02.535Z,11.30
2023-02-18T17:21:31.207Z,11.30
2023-02-18T17:24:02.129Z,11.20
2023-02-18T17:26:31.781Z,11.20
2023-02-18T17:29:01.695Z,11.20
2023-02-18T17:31:32.583Z,11.10
2023-02-18T17:34:07.829Z,11.10
2023-02-18T17:36:36.787Z,11.10
2023-02-18T17:39:13.987Z,11.00
2023-02-18T17:41:42.962Z,11.00
2023-02-18T17:44:16.654Z,10.90
2023-02-18T17:46:45.456Z,10.90
2023-02-18T17:49:13.949Z,10.90
2023-02-18T17:51:42.825Z,10.90
2023-02-18T17:54:15.169Z,10.90
2023-02-18T17:56:44.419Z,10.90
2023-02-18T17:59:13.110Z,10.90
2023-02-18T18:01:42.653Z,10.90
2023-02-18T18:04:14.668Z,10.90
2023-02-18T18:06:43.725Z,10.90
2023-02-18T18:09:14.108Z,10.90
2023-02-18T18:11:42.824Z,10.90
2023-02-18T18:14:12.019Z,10.80
2023-02-18T18:16:40.661Z,10.80
2023-02-18T18:19:09.363Z,10.90
2023-02-18T18:21:39.890Z,10.80
2023-02-18T18:24:11.872Z,10.70
2023-02-18T18:26:41.921Z,10.70
2023-02-18T18:29:10.633Z,10.70
2023-02-18T18:31:39.519Z,10.70
2023-02-18T18:34:08.102Z,10.70
2023-02-18T18:36:36.631Z,10.70
2023-02-18T18:39:05.283Z,10.70
2023-02-18T18:41:33.960Z,10.70
2023-02-18T18:44:05.128Z,10.60
2023-02-18T18:46:33.835Z,10.60
2023-02-18T18:49:02.560Z,10.60
2023-02-18T18:51:33.347Z,10.70
2023-02-18T18:54:01.899Z,10.70
2023-02-18T18:56:30.598Z,10.70
2023-02-18T18:58:59.713Z,10.70
2023-02-18T19:01:30.035Z,10.70
2023-02-18T19:03:58.629Z,10.70
2023-02-18T19:06:27.177Z,10.70
2023-02-18T19:08:55.895Z,10.70
2023-02-18T19:11:24.861Z,10.70
2023-02-18T19:13:53.508Z,10.70
2023-02-18T19:16:23.891Z,10.70
2023-02-18T19:18:54.387Z,10.70
2023-02-18T19:21:23.022Z,10.70
2023-02-18T19:23:51.530Z,10.70
2023-02-18T19:26:20.781Z,10.70
2023-02-18T19:28:49.535Z,10.70
2023-02-18T19:31:18.308Z,10.70
2023-02-18T19:33:47.400Z,10.70
2023-02-18T19:36:17.519Z,10.70
2023-02-18T19:38:46.853Z,10.70
2023-02-18T19:41:18.111Z,10.70
2023-02-18T19:43:48.067Z,10.70
2023-02-18T19:46:19.214Z,10.70
2023-02-18T19:48:51.061Z,10.70
2023-02-18T19:51:23.255Z,10.70
2023-02-18T19:53:51.912Z,10.60
2023-02-18T19:56:21.463Z,10.70
2023-02-18T19:58:50.166Z,10.70
2023-02-18T20:01:19.488Z,10.70
2023-02-18T20:03:48.425Z,10.70
2023-02-18T20:06:18.472Z,10.70
2023-02-18T20:08:49.091Z,10.70
2023-02-18T20:11:17.753Z,10.60
2023-02-18T20:13:48.304Z,10.70
2023-02-18T20:16:16.965Z,10.60
2023-02-18T20:18:45.510Z,10.70
2023-02-18T20:21:14.187Z,10.60
2023-02-18T20:23:43.060Z,10.60
2023-02-18T20:26:14.840Z,10.60
2023-02-18T20:28:44.565Z,10.60
2023-02-18T20:31:14.652Z,10.60
2023-02-18T20:33:44.696Z,10.60
2023-02-18T20:36:15.428Z,10.60
2023-02-18T20:38:44.720Z,10.60
2023-02-18T20:41:17.889Z,10.50
2023-02-18T20:43:46.858Z,10.50
2023-02-18T20:46:18.947Z,10.40
2023-02-18T20:48:48.016Z,10.40
2023-02-18T20:51:18.323Z,10.40
2023-02-18T20:53:48.104Z,10.30
2023-02-18T20:56:20.914Z,10.30
2023-02-18T20:58:50.069Z,10.30
2023-02-18T21:01:20.648Z,10.30
2023-02-18T21:03:50.179Z,10.30
2023-02-18T21:06:21.100Z,10.30
2023-02-18T21:08:51.588Z,10.30
2023-02-18T21:11:24.207Z,10.40
2023-02-18T21:13:54.806Z,10.40
2023-02-18T21:16:25.107Z,10.40
2023-02-18T21:18:54.536Z,10.40
2023-02-18T21:21:24.951Z,10.40
2023-02-18T21:23:57.084Z,10.40
2023-02-18T21:26:28.868Z,10.40
2023-02-18T21:29:00.971Z,10.40
2023-02-18T21:31:32.667Z,10.40
2023-02-18T21:34:02.233Z,10.40
2023-02-18T21:36:32.717Z,10.40
2023-02-18T21:39:03.491Z,10.40
2023-02-18T21:41:35.707Z,10.40
2023-02-18T21:44:04.955Z,10.40
2023-02-18T21:46:35.190Z,10.40
2023-02-18T21:49:06.110Z,10.30
2023-02-18T21:51:54.832Z,10.30
2023-02-18T21:54:25.472Z,10.30
2023-02-18T21:56:56.435Z,10.30
2023-02-18T21:59:27.771Z,10.30
2023-02-18T22:01:59.981Z,10.30
2023-02-18T22:04:29.570Z,10.30
2023-02-18T22:06:58.499Z,10.30
2023-02-18T22:09:27.839Z,10.30
2023-02-18T22:11:58.071Z,10.30
2023-02-18T22:14:26.781Z,10.30
2023-02-18T22:16:55.415Z,10.30
2023-02-18T22:19:24.214Z,10.30
2023-02-18T22:21:53.463Z,10.30
2023-02-18T22:24:22.208Z,10.30
2023-02-18T22:26:51.365Z,10.30
2023-02-18T22:29:21.934Z,10.30
2023-02-18T22:31:53.509Z,10.30
2023-02-18T22:34:23.635Z,10.30
2023-02-18T22:36:52.448Z,10.30
2023-02-18T22:39:21.312Z,10.20
2023-02-18T22:41:50.228Z,10.20
2023-02-18T22:44:20.934Z,10.10
2023-02-18T22:46:49.868Z,10.10
2023-02-18T22:49:18.532Z,10.00
2023-02-18T22:51:47.068Z,10.10
2023-02-18T22:54:17.516Z,10.00
2023-02-18T22:56:47.583Z,10.00
2023-02-18T22:59:18.602Z,10.00
2023-02-18T23:01:50.672Z,9.90
2023-02-18T23:04:21.049Z,9.90
2023-02-18T23:06:50.564Z,9.90
2023-02-18T23:09:21.631Z,9.90
2023-02-18T23:11:55.227Z,9.90
2023-02-18T23:14:28.354Z,9.90
2023-02-18T23:17:16.830Z,9.90
2023-02-18T23:19:47.300Z,9.90
2023-02-18T23:22:17.899Z,9.90
2023-02-18T23:24:49.682Z,9.90
2023-02-18T23:27:19.535Z,10.00
2023-02-18T23:29:48.739Z,10.00
2023-02-18T23:32:19.255Z,10.00
2023-02-18T23:34:48.078Z,10.00
2023-02-18T23:37:16.797Z,10.00
2023-02-18T23:39:47.519Z,10.10
2023-02-18T23:42:17.169Z,10.10
2023-02-18T23:44:50.181Z,10.10
2023-02-18T23:47:20.469Z,10.10
2023-02-18T23:49:49.181Z,10.00
2023-02-18T23:52:17.934Z,10.00
2023-02-18T23:54:46.732Z,10.00
2023-02-18T23:57:15.522Z,10.00
2023-02-18T23:59:44.444Z,10.00
